Temp: 13.8°C   Baro: 1008.4mb
  Wind: 4.0mph   Dir: WSW (257°)
  Rain: 6.4mm (0.0mm/hr)
  Sun: 281W/m2  Humidity: 91%

Historic data

Bath Spa Weather Station Historical Data
Daily Summary for April 17, 2024 Units:  Metric    English   Both
Daily Weekly Monthly Yearly Custom
  High: Low: Average:
Temperature: 10.6 °C 3.3 °C 7 °C
Dew Point: 4.4 °C 0.7 °C 2.7 °C
Humidity: 87.8% 58.2% 74%
Wind Speed: 16.9km/h 0km/h 6.3km/h
Wind Gust: 30.6km/h - -
Wind- - WNW
Pressure: 1020.5 hPa 1016.8 hPa -
Precipitation: 0 mm    
Historical Graphs
 
 
Tabular Data for April 17, 2024
Time Temperature Dew Point Pressure Wind Wind Speed Wind Gust Humidity Rainfall Rate (Hourly) solar
00:09 5.7 °C 2.2 °C 1019.5 hPa NNW 5.3 km/h 8 km/h 78% 0 mm 0 W/m2
00:14 5.6 °C 2.1 °C 1019.5 hPa NNW 4.3 km/h 8 km/h 78% 0 mm 0 W/m2
00:19 5.6 °C 2.2 °C 1019.5 hPa NW 4.7 km/h 8 km/h 78.6% 0 mm 0 W/m2
00:24 5.6 °C 2.1 °C 1019.5 hPa NW 3.7 km/h 4.8 km/h 78.8% 0 mm 0 W/m2
00:29 5.5 °C 2.1 °C 1019.5 hPa NW 4.2 km/h 6.4 km/h 79% 0 mm 0 W/m2
00:34 5.4 °C 2.1 °C 1019.5 hPa NW 3.2 km/h 6.4 km/h 79% 0 mm 0 W/m2
00:39 5.4 °C 2.1 °C 1019.5 hPa NW 2.4 km/h 6.4 km/h 79% 0 mm 0 W/m2
00:44 5.3 °C 1.9 °C 1019.5 hPa NW 2.1 km/h 4.8 km/h 78.6% 0 mm 0 W/m2
00:49 5.2 °C 1.7 °C 1019.5 hPa NW 2.4 km/h 4.8 km/h 78% 0 mm 0 W/m2
00:54 5.2 °C 1.8 °C 1019.5 hPa NW 2.6 km/h 4.8 km/h 78.8% 0 mm 0 W/m2
00:59 5.2 °C 1.8 °C 1019.5 hPa NW 3.2 km/h 8 km/h 79% 0 mm 0 W/m2
01:03 5.2 °C 1.8 °C 1019.5 hPa NW 4.3 km/h 8 km/h 79% 0 mm 0 W/m2
01:09 5.1 °C 1.8 °C 1019.5 hPa NW 4 km/h 6.4 km/h 79% 0 mm 0 W/m2
01:14 5.1 °C 1.8 °C 1019.5 hPa NNW 3.4 km/h 8 km/h 79% 0 mm 0 W/m2
01:19 4.9 °C 1.7 °C 1019.5 hPa NW 4 km/h 8 km/h 79% 0 mm 0 W/m2
01:24 4.9 °C 1.6 °C 1019.5 hPa NW 4 km/h 8 km/h 79% 0 mm 0 W/m2
01:29 4.8 °C 1.6 °C 1019.5 hPa NW 4.2 km/h 6.4 km/h 79% 0 mm 0 W/m2
01:34 4.8 °C 1.5 °C 1019.2 hPa NW 6.4 km/h 9.7 km/h 79% 0 mm 0 W/m2
01:39 4.7 °C 1.4 °C 1019.2 hPa NW 4 km/h 8 km/h 79% 0 mm 0 W/m2
01:44 4.7 °C 1.4 °C 1019.2 hPa NW 2.1 km/h 4.8 km/h 79% 0 mm 0 W/m2
01:49 4.7 °C 1.4 °C 1019.2 hPa NW 0.6 km/h 4.8 km/h 79% 0 mm 0 W/m2
01:54 4.6 °C 1.3 °C 1019.2 hPa NW 1 km/h 3.2 km/h 79% 0 mm 0 W/m2
01:59 4.5 °C 1.2 °C 1019.2 hPa NW 1.8 km/h 3.2 km/h 79.2% 0 mm 0 W/m2
02:04 4.3 °C 1.2 °C 1018.8 hPa NW 0.6 km/h 3.2 km/h 80% 0 mm 0 W/m2
02:09 4.3 °C 1.2 °C 1018.8 hPa NW 0.3 km/h 1.6 km/h 80% 0 mm 0 W/m2
02:14 4.2 °C 1.1 °C 1019.2 hPa NW 0.6 km/h 3.2 km/h 80% 0 mm 0 W/m2
02:19 3.9 °C 0.9 °C 1019.2 hPa NW 1.4 km/h 3.2 km/h 80.4% 0 mm 0 W/m2
02:24 3.8 °C 0.8 °C 1018.8 hPa NW 1.4 km/h 4.8 km/h 81% 0 mm 0 W/m2
02:29 3.8 °C 0.8 °C 1018.8 hPa NW 1.4 km/h 4.8 km/h 81% 0 mm 0 W/m2
02:34 3.7 °C 0.8 °C 1018.8 hPa NW 1.8 km/h 3.2 km/h 81.6% 0 mm 0 W/m2
02:39 3.7 °C 0.9 °C 1018.8 hPa NW 1.8 km/h 6.4 km/h 82% 0 mm 0 W/m2
02:44 3.7 °C 0.9 °C 1018.8 hPa NW 1.4 km/h 4.8 km/h 82% 0 mm 0 W/m2
02:49 3.7 °C 1.1 °C 1018.8 hPa NW 0.6 km/h 3.2 km/h 82.8% 0 mm 0 W/m2
02:54 3.7 °C 1.1 °C 1018.8 hPa Calm     83% 0 mm 0 W/m2
02:59 3.7 °C 1.1 °C 1018.8 hPa Calm     83% 0 mm 0 W/m2
03:04 3.5 °C 0.9 °C 1018.8 hPa NW 1.3 km/h 4.8 km/h 83% 0 mm 0 W/m2
03:09 3.4 °C 0.8 °C 1018.8 hPa NW 2.7 km/h 4.8 km/h 83% 0 mm 0 W/m2
03:14 3.3 °C 0.7 °C 1018.8 hPa Calm   3.2 km/h 83% 0 mm 0 W/m2
03:19 3.3 °C 0.8 °C 1018.8 hPa NW 3.9 km/h 6.4 km/h 83.6% 0 mm 0 W/m2
03:24 3.3 °C 0.9 °C 1018.8 hPa NW 3.2 km/h 6.4 km/h 84% 0 mm 0 W/m2
03:29 3.3 °C 0.9 °C 1018.8 hPa NW 2.1 km/h 4.8 km/h 84% 0 mm 0 W/m2
03:34 3.4 °C 1 °C 1018.8 hPa NW 1.8 km/h 4.8 km/h 84% 0 mm 0 W/m2
03:39 3.6 °C 1.2 °C 1018.8 hPa Calm   4.8 km/h 84% 0 mm 0 W/m2
03:44 3.7 °C 1.2 °C 1018.8 hPa NW 1.3 km/h 4.8 km/h 84% 0 mm 0 W/m2
03:49 3.7 °C 1.2 °C 1018.8 hPa NW 4 km/h 6.4 km/h 84% 0 mm 0 W/m2
03:54 3.8 °C 1.3 °C 1018.8 hPa WNW 3.9 km/h 6.4 km/h 84% 0 mm 0 W/m2
03:59 4.1 °C 1.6 °C 1018.8 hPa WNW 1.4 km/h 6.4 km/h 84% 0 mm 0 W/m2
04:04 4.2 °C 1.7 °C 1018.8 hPa WNW 2.7 km/h 4.8 km/h 84% 0 mm 0 W/m2
04:09 4.2 °C 1.7 °C 1018.8 hPa WNW 0.8 km/h 4.8 km/h 84% 0 mm 0 W/m2
04:14 4.3 °C 1.8 °C 1018.8 hPa WNW 2.6 km/h 4.8 km/h 84.2% 0 mm 0 W/m2
04:19 4.3 °C 2 °C 1018.5 hPa WNW 1.3 km/h 4.8 km/h 85% 0 mm 0 W/m2
04:24 4.4 °C 2.1 °C 1018.5 hPa WNW 2.1 km/h 4.8 km/h 85% 0 mm 0 W/m2
04:29 4.5 °C 2.2 °C 1018.5 hPa WNW 2.6 km/h 4.8 km/h 85% 0 mm 0 W/m2
04:34 4.6 °C 2.3 °C 1018.5 hPa WNW 1.4 km/h 4.8 km/h 85% 0 mm 0 W/m2
04:39 4.6 °C 2.3 °C 1018.5 hPa WNW 0.3 km/h 3.2 km/h 85% 0 mm 0 W/m2
04:44 4.6 °C 2.3 °C 1018.5 hPa WNW 1.6 km/h 4.8 km/h 85% 0 mm 0 W/m2
04:49 4.6 °C 2.3 °C 1018.5 hPa WNW 0.3 km/h 1.6 km/h 85% 0 mm 0 W/m2
04:54 4.6 °C 2.3 °C 1018.5 hPa WNW 0.6 km/h 3.2 km/h 85% 0 mm 0 W/m2
04:59 4.6 °C 2.3 °C 1018.5 hPa Calm   3.2 km/h 85% 0 mm 0 W/m2
05:04 4.6 °C 2.2 °C 1018.8 hPa Calm     85% 0 mm 0 W/m2
05:09 4.5 °C 2.2 °C 1018.8 hPa Calm     85% 0 mm 0 W/m2
05:14 4.5 °C 2.2 °C 1018.5 hPa Calm   1.6 km/h 85% 0 mm 0 W/m2
05:19 4.5 °C 2.2 °C 1018.5 hPa Calm     85% 0 mm 0 W/m2
05:24 4.4 °C 2.1 °C 1018.5 hPa Calm     85% 0 mm 0 W/m2
05:29 4.3 °C 2 °C 1018.5 hPa WNW 0.3 km/h 1.6 km/h 85% 0 mm 0 W/m2
05:34 4.2 °C 1.9 °C 1018.5 hPa WNW 0.3 km/h 1.6 km/h 85% 0 mm 0 W/m2
05:39 4.1 °C 1.8 °C 1018.5 hPa WNW 1.3 km/h 4.8 km/h 85.4% 0 mm 0 W/m2
05:44 3.9 °C 1.8 °C 1018.5 hPa WNW 2.1 km/h 4.8 km/h 86% 0 mm 0 W/m2
05:49 3.8 °C 1.7 °C 1018.5 hPa WNW 2.9 km/h 4.8 km/h 86% 0 mm 0 W/m2
05:54 3.8 °C 1.7 °C 1018.5 hPa WNW 2.1 km/h 4.8 km/h 86% 0 mm 0 W/m2
05:59 3.8 °C 1.7 °C 1018.5 hPa WNW 1.8 km/h 3.2 km/h 86% 0 mm 0 W/m2
06:04 3.7 °C 1.7 °C 1018.5 hPa WNW 1.9 km/h 3.2 km/h 86.8% 0 mm 0 W/m2
06:09 3.7 °C 1.7 °C 1018.5 hPa WNW 1 km/h 6.4 km/h 87% 0 mm 0 W/m2
06:14 3.7 °C 1.7 °C 1018.5 hPa WNW 0.3 km/h 4.8 km/h 87% 0 mm 5 W/m2
06:19 3.8 °C 1.8 °C 1018.5 hPa Calm   1.6 km/h 87% 0 mm 9 W/m2
06:24 3.7 °C 1.7 °C 1018.5 hPa Calm     87% 0 mm 11 W/m2
06:29 3.7 °C 1.7 °C 1018.5 hPa Calm   1.6 km/h 87% 0 mm 12 W/m2
06:34 3.6 °C 1.6 °C 1018.5 hPa Calm     87% 0 mm 14 W/m2
06:39 3.4 °C 1.4 °C 1018.5 hPa Calm     87% 0 mm 16 W/m2
06:44 3.4 °C 1.4 °C 1018.5 hPa WNW 0.3 km/h 1.6 km/h 87% 0 mm 18 W/m2
06:49 3.6 °C 1.6 °C 1018.8 hPa Calm     87% 0 mm 21 W/m2
06:54 3.7 °C 1.7 °C 1018.8 hPa Calm     87% 0 mm 23 W/m2
06:59 3.8 °C 1.8 °C 1018.8 hPa WNW 0.3 km/h 3.2 km/h 87% 0 mm 25 W/m2
07:04 3.7 °C 1.7 °C 1018.8 hPa Calm   1.6 km/h 87% 0 mm 26 W/m2
07:09 3.7 °C 1.8 °C 1018.8 hPa Calm     87.2% 0 mm 51 W/m2
07:14 3.8 °C 1.8 °C 1018.8 hPa WNW 2.6 km/h 4.8 km/h 87% 0 mm 53 W/m2
07:19 4.1 °C 2.2 °C 1018.8 hPa WNW 4.7 km/h 8 km/h 87.4% 0 mm 35 W/m2
07:24 4.4 °C 2.6 °C 1018.8 hPa West 1.6 km/h 8 km/h 87.8% 0 mm 46 W/m2
07:29 4.7 °C 2.7 °C 1018.8 hPa West 3.2 km/h 9.7 km/h 87% 0 mm 70 W/m2
07:34 5 °C 3 °C 1018.8 hPa West 8 km/h 12.9 km/h 87% 0 mm 114 W/m2
07:39 5.3 °C 3.2 °C 1018.8 hPa West 4.8 km/h 11.3 km/h 86.4% 0 mm 160 W/m2
07:44 5.7 °C 3.4 °C 1018.8 hPa West 6.6 km/h 12.9 km/h 85.8% 0 mm 183 W/m2
07:48 5.9 °C 3.6 °C 1018.5 hPa WSW 6.4 km/h 12.9 km/h 85% 0 mm 183 W/m2
07:54 6 °C 3.6 °C 1018.8 hPa WNW 6.8 km/h 12.9 km/h 84.2% 0 mm 141 W/m2
07:59 6.1 °C 3.4 °C 1018.8 hPa WNW 9.5 km/h 24.1 km/h 83% 0 mm 165 W/m2
08:04 6.2 °C 3.4 °C 1018.8 hPa West 8.2 km/h 22.5 km/h 82% 0 mm 169 W/m2
08:09 6.3 °C 3.2 °C 1018.8 hPa NW 10.6 km/h 17.7 km/h 80.4% 0 mm 185 W/m2
08:14 6.4 °C 3.1 °C 1018.8 hPa NW 12.6 km/h 22.5 km/h 79.2% 0 mm 199 W/m2
08:19 6.6 °C 2.9 °C 1018.8 hPa West 14.2 km/h 25.7 km/h 78% 0 mm 221 W/m2
08:24 6.7 °C 3 °C 1018.8 hPa West 7.4 km/h 19.3 km/h 77% 0 mm 322 W/m2
08:29 6.8 °C 3 °C 1018.8 hPa WNW 9.7 km/h 22.5 km/h 76.6% 0 mm 202 W/m2
08:34 6.8 °C 2.9 °C 1018.8 hPa WNW 11.7 km/h 22.5 km/h 76% 0 mm 190 W/m2
08:39 6.8 °C 2.7 °C 1018.8 hPa WNW 13.8 km/h 24.1 km/h 75% 0 mm 186 W/m2
08:44 6.8 °C 2.6 °C 1018.8 hPa NW 10 km/h 17.7 km/h 74.4% 0 mm 183 W/m2
08:49 6.8 °C 2.5 °C 1018.8 hPa WNW 9.5 km/h 17.7 km/h 74% 0 mm 174 W/m2
08:54 6.8 °C 2.4 °C 1018.8 hPa WNW 11.3 km/h 27.4 km/h 73.8% 0 mm 262 W/m2
08:59 6.8 °C 2.3 °C 1018.8 hPa WNW 10.9 km/h 25.7 km/h 73% 0 mm 290 W/m2
09:04 7.1 °C 2.6 °C 1018.8 hPa NW 10.3 km/h 22.5 km/h 73% 0 mm 524 W/m2
09:09 7.4 °C 2.8 °C 1018.5 hPa WNW 9.7 km/h 19.3 km/h 72.8% 0 mm 589 W/m2
09:14 7.6 °C 2.9 °C 1018.5 hPa WNW 10.3 km/h 24.1 km/h 72% 0 mm 417 W/m2
09:19 7.7 °C 2.9 °C 1018.8 hPa NW 11.3 km/h 24.1 km/h 71.8% 0 mm 345 W/m2
09:24 7.7 °C 2.8 °C 1018.8 hPa WNW 7.6 km/h 20.9 km/h 71% 0 mm 295 W/m2
09:29 7.7 °C 2.7 °C 1018.5 hPa WNW 10.6 km/h 20.9 km/h 71% 0 mm 237 W/m2
09:34 7.6 °C 2.9 °C 1018.8 hPa West 11.3 km/h 20.9 km/h 72% 0 mm 214 W/m2
09:39 7.5 °C 2.7 °C 1018.5 hPa West 8.4 km/h 24.1 km/h 71.6% 0 mm 195 W/m2
09:44 7.6 °C 2.8 °C 1018.5 hPa West 8.7 km/h 20.9 km/h 71.8% 0 mm 236 W/m2
09:49 7.4 °C 2.5 °C 1018.5 hPa WNW 11.6 km/h 20.9 km/h 71% 0 mm 287 W/m2
09:54 7.5 °C 2.6 °C 1018.5 hPa WNW 7.1 km/h 17.7 km/h 71% 0 mm 366 W/m2
09:59 7.6 °C 2.7 °C 1018.5 hPa WNW 9.3 km/h 24.1 km/h 71% 0 mm 355 W/m2
10:04 7.7 °C 2.6 °C 1018.5 hPa WNW 16.4 km/h 27.4 km/h 70% 0 mm 394 W/m2
10:09 7.8 °C 2.7 °C 1018.5 hPa WNW 10.6 km/h 22.5 km/h 70% 0 mm 652 W/m2
10:14 7.8 °C 2.5 °C 1018.5 hPa WNW 11.4 km/h 25.7 km/h 69% 0 mm 359 W/m2
10:19 7.9 °C 2.6 °C 1018.2 hPa WNW 14.2 km/h 29 km/h 69% 0 mm 519 W/m2
10:24 7.8 °C 2.6 °C 1018.5 hPa WNW 15.1 km/h 30.6 km/h 69% 0 mm 304 W/m2
10:29 7.9 °C 2.6 °C 1018.5 hPa NW 8 km/h 19.3 km/h 68.6% 0 mm 378 W/m2
10:34 8.1 °C 2.7 °C 1018.5 hPa WNW 6.4 km/h 17.7 km/h 68.6% 0 mm 378 W/m2
10:39 8.2 °C 2.7 °C 1018.5 hPa WNW 14.2 km/h 20.9 km/h 68.4% 0 mm 404 W/m2
10:44 8.3 °C 2.7 °C 1018.5 hPa WNW 12.9 km/h 19.3 km/h 68% 0 mm 844 W/m2
10:49 8.8 °C 3.1 °C 1018.5 hPa WNW 9 km/h 25.7 km/h 67.6% 0 mm 788 W/m2
10:54 9 °C 3 °C 1018.2 hPa West 12.7 km/h 22.5 km/h 66.2% 0 mm 926 W/m2
10:59 8.8 °C 2.7 °C 1018.2 hPa WNW 12.2 km/h 24.1 km/h 65.8% 0 mm 390 W/m2
11:04 8.7 °C 2.6 °C 1018.2 hPa WNW 10 km/h 24.1 km/h 65.2% 0 mm 489 W/m2
11:09 8.4 °C 2.5 °C 1018.2 hPa West 13.5 km/h 24.1 km/h 66.6% 0 mm 366 W/m2
11:14 8.3 °C 2.7 °C 1018.2 hPa WNW 12.2 km/h 22.5 km/h 68% 0 mm 246 W/m2
11:19 8.3 °C 2.8 °C 1018.2 hPa WNW 11.6 km/h 19.3 km/h 68.6% 0 mm 343 W/m2
11:24 8.3 °C 2.9 °C 1018.2 hPa WNW 9 km/h 22.5 km/h 69% 0 mm 301 W/m2
11:29 8.4 °C 3 °C 1018.2 hPa NW 10.9 km/h 20.9 km/h 69% 0 mm 232 W/m2
11:34 8.4 °C 2.8 °C 1018.2 hPa NW 11.3 km/h 20.9 km/h 68.2% 0 mm 243 W/m2
11:39 8.4 °C 2.7 °C 1017.8 hPa NNW 9.3 km/h 16.1 km/h 67.4% 0 mm 338 W/m2
11:44 8.6 °C 2.8 °C 1017.8 hPa NNW 10.8 km/h 22.5 km/h 67% 0 mm 302 W/m2
11:49 8.7 °C 2.9 °C 1017.8 hPa WNW 8.5 km/h 14.5 km/h 67% 0 mm 353 W/m2
11:54 8.9 °C 2.9 °C 1017.8 hPa NW 8.4 km/h 19.3 km/h 66.4% 0 mm 413 W/m2
11:59 8.8 °C 2.7 °C 1017.8 hPa NW 11.3 km/h 27.4 km/h 65.4% 0 mm 425 W/m2
12:04 8.8 °C 2.7 °C 1017.8 hPa NW 8.4 km/h 20.9 km/h 65% 0 mm 796 W/m2
12:09 9.3 °C 2.9 °C 1017.8 hPa NNW 13 km/h 22.5 km/h 64.6% 0 mm 796 W/m2
12:14 9.3 °C 2.8 °C 1017.8 hPa WNW 14.8 km/h 22.5 km/h 64% 0 mm 304 W/m2
12:19 9.2 °C 2.8 °C 1017.8 hPa WNW 12.9 km/h 19.3 km/h 64.2% 0 mm 881 W/m2
12:24 9.4 °C 2.7 °C 1017.8 hPa WNW 9.2 km/h 22.5 km/h 62.8% 0 mm 914 W/m2
12:29 9.7 °C 2.7 °C 1017.8 hPa NW 11.6 km/h 20.9 km/h 61.6% 0 mm 327 W/m2
12:34 9.7 °C 2.2 °C 1017.8 hPa WNW 16.9 km/h 29 km/h 59.5% 0 mm 796 W/m2
12:39 9.8 °C 1.9 °C 1017.5 hPa NW 11.9 km/h 29 km/h 58.2% 0 mm 758 W/m2
12:44 10.1 °C 2.4 °C 1017.5 hPa NW 16.7 km/h 25.7 km/h 59% 0 mm 912 W/m2
12:49 10.2 °C 2.4 °C 1017.5 hPa WNW 7.1 km/h 22.5 km/h 59% 0 mm 352 W/m2
12:54 10.1 °C 2.6 °C 1017.5 hPa NW 8.5 km/h 16.1 km/h 59.8% 0 mm 255 W/m2
12:59 9.9 °C 2.6 °C 1017.5 hPa NW 8.2 km/h 17.7 km/h 60.2% 0 mm 264 W/m2
13:04 9.8 °C 2.4 °C 1017.5 hPa NW 5.3 km/h 17.7 km/h 60% 0 mm 272 W/m2
13:09 9.9 °C 2.7 °C 1017.5 hPa NW 11.6 km/h 19.3 km/h 60.8% 0 mm 302 W/m2
13:14 9.8 °C 2.8 °C 1017.5 hPa WNW 8 km/h 16.1 km/h 61.8% 0 mm 216 W/m2
13:19 9.9 °C 3 °C 1017.5 hPa WNW 7.4 km/h 14.5 km/h 62% 0 mm 362 W/m2
13:24 9.8 °C 2.9 °C 1017.5 hPa West 6.9 km/h 19.3 km/h 62% 0 mm 362 W/m2
13:29 9.7 °C 2.9 °C 1017.5 hPa West 14.8 km/h 24.1 km/h 62.6% 0 mm 207 W/m2
13:34 9.6 °C 2.8 °C 1017.5 hPa West 11.9 km/h 19.3 km/h 63% 0 mm 178 W/m2
13:39 9.6 °C 3.1 °C 1017.5 hPa WNW 9.7 km/h 17.7 km/h 64% 0 mm 332 W/m2
13:44 9.7 °C 3.1 °C 1017.8 hPa West 11.6 km/h 20.9 km/h 63.4% 0 mm 403 W/m2
13:49 10.1 °C 3.4 °C 1017.8 hPa NW 8 km/h 17.7 km/h 63.2% 0 mm 339 W/m2
13:54 10.1 °C 3.3 °C 1017.5 hPa NW 10.9 km/h 17.7 km/h 63% 0 mm 967 W/m2
13:59 10.6 °C 3.4 °C 1017.5 hPa WNW 12.2 km/h 22.5 km/h 61.2% 0 mm 1005 W/m2
14:04 10.6 °C 3.1 °C 1017.5 hPa WNW 11.3 km/h 22.5 km/h 59.8% 0 mm 292 W/m2
14:09 10.2 °C 2.8 °C 1017.5 hPa NW 9.8 km/h 22.5 km/h 60.4% 0 mm 206 W/m2
14:14 10.2 °C 3.1 °C 1017.5 hPa NW 10.3 km/h 17.7 km/h 61.4% 0 mm 251 W/m2
14:19 10.2 °C 2.8 °C 1017.5 hPa North 7.6 km/h 20.9 km/h 60.2% 0 mm 313 W/m2
14:24 10.2 °C 2.8 °C 1017.5 hPa NW 13.2 km/h 22.5 km/h 60.2% 0 mm 320 W/m2
14:29 10.2 °C 2.7 °C 1017.5 hPa NW 12.9 km/h 24.1 km/h 59.8% 0 mm 315 W/m2
14:34 10.1 °C 2.7 °C 1017.5 hPa NW 10.6 km/h 24.1 km/h 59.8% 0 mm 239 W/m2
14:39 9.9 °C 2.7 °C 1017.5 hPa WNW 12.9 km/h 27.4 km/h 60.8% 0 mm 209 W/m2
14:44 9.6 °C 3.3 °C 1017.5 hPa West 15.8 km/h 22.5 km/h 65% 0 mm 304 W/m2
14:49 9.4 °C 3.7 °C 1017.5 hPa West 11.6 km/h 25.7 km/h 67.6% 0 mm 496 W/m2
14:54 9.3 °C 3.8 °C 1017.5 hPa WNW 10.3 km/h 25.7 km/h 68.6% 0 mm 628 W/m2
14:59 9.4 °C 4.1 °C 1017.5 hPa West 11.3 km/h 20.9 km/h 69% 0 mm 366 W/m2
15:04 9.6 °C 4 °C 1017.5 hPa West 12.2 km/h 24.1 km/h 68.2% 0 mm 306 W/m2
15:09 9.6 °C 3.9 °C 1017.5 hPa West 11.3 km/h 20.9 km/h 68% 0 mm 213 W/m2
15:14 9.4 °C 3.8 °C 1017.5 hPa WNW 13.5 km/h 22.5 km/h 68% 0 mm 188 W/m2
15:19 9.5 °C 3.9 °C 1017.5 hPa WNW 10.9 km/h 20.9 km/h 68% 0 mm 204 W/m2
15:24 9.3 °C 3.7 °C 1017.5 hPa WNW 12.9 km/h 22.5 km/h 67.6% 0 mm 216 W/m2
15:29 9.1 °C 3.5 °C 1017.5 hPa WNW 13.8 km/h 24.1 km/h 68% 0 mm 250 W/m2
15:34 9.2 °C 3.4 °C 1017.2 hPa NW 15.4 km/h 19.3 km/h 67.6% 0 mm 301 W/m2
15:39 9.3 °C 3.5 °C 1017.2 hPa NW 10.6 km/h 19.3 km/h 67% 0 mm 357 W/m2
15:44 9.6 °C 3.6 °C 1017.2 hPa NW 10.5 km/h 20.9 km/h 66.2% 0 mm 360 W/m2
15:49 10.1 °C 3.7 °C 1017.2 hPa NW 10 km/h 22.5 km/h 64.8% 0 mm 700 W/m2
15:54 10.3 °C 3.7 °C 1017.2 hPa WNW 11.7 km/h 19.3 km/h 63.2% 0 mm 700 W/m2
15:59 10.2 °C 3.4 °C 1017.2 hPa WNW 10.6 km/h 19.3 km/h 62.6% 0 mm 209 W/m2
16:04 10 °C 3.3 °C 1017.2 hPa WNW 8.9 km/h 22.5 km/h 62.8% 0 mm 218 W/m2
16:09 9.8 °C 3.1 °C 1017.2 hPa NW 10 km/h 24.1 km/h 63% 0 mm 163 W/m2
16:14 9.7 °C 3.2 °C 1017.2 hPa WNW 9 km/h 17.7 km/h 64% 0 mm 176 W/m2
16:19 10.1 °C 3.7 °C 1016.8 hPa NW 12.2 km/h 25.7 km/h 64.4% 0 mm 599 W/m2
16:24 10.1 °C 3.6 °C 1017.2 hPa WNW 13.2 km/h 25.7 km/h 64% 0 mm 113 W/m2
16:29 10 °C 3.6 °C 1016.8 hPa WNW 12.9 km/h 16.1 km/h 64.4% 0 mm 615 W/m2
16:34 10.2 °C 3.7 °C 1016.8 hPa West 10.3 km/h 20.9 km/h 64.4% 0 mm 378 W/m2
16:39 10 °C 3.7 °C 1016.8 hPa WNW 10 km/h 20.9 km/h 64.8% 0 mm 144 W/m2
16:44 9.7 °C 3.4 °C 1016.8 hPa West 8.9 km/h 20.9 km/h 65.2% 0 mm 90 W/m2
16:49 9.6 °C 3.7 °C 1016.8 hPa WNW 6 km/h 14.5 km/h 66.4% 0 mm 86 W/m2
16:54 9.4 °C 3.7 °C 1016.8 hPa NW 10 km/h 16.1 km/h 67.2% 0 mm 128 W/m2
16:59 9.3 °C 3.8 °C 1016.8 hPa WNW 12.9 km/h 22.5 km/h 68.2% 0 mm 127 W/m2
17:04 9.2 °C 3.8 °C 1017.2 hPa NW 7.9 km/h 17.7 km/h 69.6% 0 mm 100 W/m2
17:09 9 °C 3.9 °C 1017.2 hPa NNW 7.2 km/h 16.1 km/h 70.6% 0 mm 60 W/m2
17:14 8.7 °C 3.7 °C 1017.2 hPa WNW 9.2 km/h 19.3 km/h 71.2% 0 mm 60 W/m2
17:19 8.5 °C 3.7 °C 1017.2 hPa NW 9.2 km/h 17.7 km/h 72.4% 0 mm 69 W/m2
17:24 8.3 °C 3.8 °C 1017.2 hPa NNW 7.1 km/h 14.5 km/h 73.6% 0 mm 97 W/m2
17:29 8.2 °C 3.8 °C 1016.8 hPa NW 6 km/h 12.9 km/h 74% 0 mm 158 W/m2
17:34 8.3 °C 3.9 °C 1016.8 hPa WNW 4.7 km/h 8 km/h 74% 0 mm 206 W/m2
17:39 8.4 °C 4 °C 1016.8 hPa WNW 4.7 km/h 12.9 km/h 74% 0 mm 206 W/m2
17:44 8.4 °C 4.1 °C 1016.8 hPa WNW 4 km/h 4.8 km/h 73.8% 0 mm 206 W/m2
17:49 8.9 °C 4.3 °C 1016.8 hPa WNW 7.9 km/h 12.9 km/h 73% 0 mm 218 W/m2
17:54 9 °C 4.4 °C 1017.2 hPa WNW 6 km/h 11.3 km/h 73% 0 mm 237 W/m2
17:59 9.1 °C 4.3 °C 1017.2 hPa WNW 6.9 km/h 14.5 km/h 72% 0 mm 135 W/m2
18:04 9.1 °C 4.2 °C 1017.2 hPa WNW 6.6 km/h 11.3 km/h 72% 0 mm 76 W/m2
18:09 9.1 °C 4.3 °C 1017.2 hPa WNW 5.8 km/h 16.1 km/h 72% 0 mm 86 W/m2
18:14 9.1 °C 4.2 °C 1017.2 hPa WNW 10.6 km/h 19.3 km/h 72% 0 mm 116 W/m2
18:19 8.9 °C 4.2 °C 1017.2 hPa West 6.4 km/h 14.5 km/h 72% 0 mm 116 W/m2
18:24 8.8 °C 3.9 °C 1017.2 hPa WNW 6.9 km/h 16.1 km/h 71.2% 0 mm 141 W/m2
18:29 8.8 °C 3.8 °C 1017.2 hPa WNW 4.2 km/h 12.9 km/h 71% 0 mm 146 W/m2
18:34 8.9 °C 3.9 °C 1017.2 hPa WNW 6.3 km/h 11.3 km/h 71% 0 mm 142 W/m2
18:39 9 °C 3.8 °C 1017.2 hPa WNW 6.1 km/h 16.1 km/h 70% 0 mm 121 W/m2
18:44 9.1 °C 3.8 °C 1017.2 hPa WNW 7.2 km/h 12.9 km/h 70% 0 mm 113 W/m2
18:49 9.1 °C 3.8 °C 1017.2 hPa NW 7.2 km/h 14.5 km/h 70% 0 mm 113 W/m2
18:54 9.1 °C 3.9 °C 1017.2 hPa NW 5 km/h 11.3 km/h 70% 0 mm 104 W/m2
18:59 9.1 °C 3.9 °C 1017.2 hPa WNW 7.7 km/h 14.5 km/h 70% 0 mm 100 W/m2
19:04 9.1 °C 3.9 °C 1017.2 hPa WNW 6.6 km/h 14.5 km/h 70% 0 mm 69 W/m2
19:09 9.1 °C 3.9 °C 1017.2 hPa NW 10 km/h 17.7 km/h 70.2% 0 mm 70 W/m2
19:14 9.1 °C 4 °C 1017.2 hPa NW 10.6 km/h 17.7 km/h 70.8% 0 mm 69 W/m2
19:19 9.1 °C 4.1 °C 1017.2 hPa WNW 7.1 km/h 16.1 km/h 71% 0 mm 58 W/m2
19:24 9 °C 3.9 °C 1017.2 hPa NNW 10.3 km/h 22.5 km/h 70.4% 0 mm 44 W/m2
19:29 8.9 °C 3.7 °C 1017.2 hPa NNW 6.6 km/h 14.5 km/h 70% 0 mm 39 W/m2
19:34 8.9 °C 3.7 °C 1017.2 hPa WNW 5.1 km/h 12.9 km/h 70% 0 mm 25 W/m2
19:39 8.8 °C 3.5 °C 1017.2 hPa NNW 10 km/h 17.7 km/h 69.6% 0 mm 18 W/m2
19:44 8.7 °C 3.4 °C 1017.5 hPa NNW 6.3 km/h 11.3 km/h 69.8% 0 mm 12 W/m2
19:49 8.7 °C 3.4 °C 1017.5 hPa WNW 5.1 km/h 11.3 km/h 70% 0 mm 9 W/m2
19:54 8.5 °C 3.3 °C 1017.5 hPa NW 7.1 km/h 12.9 km/h 70% 0 mm 9 W/m2
19:59 8.4 °C 3.4 °C 1017.5 hPa NW 6.9 km/h 12.9 km/h 71% 0 mm 7 W/m2
20:04 8.4 °C 3.4 °C 1017.5 hPa NW 7.7 km/h 11.3 km/h 71% 0 mm 5 W/m2
20:09 8.3 °C 3.5 °C 1017.5 hPa NW 5.1 km/h 9.7 km/h 71.8% 0 mm 0 W/m2
20:14 8.2 °C 3.5 °C 1017.5 hPa NW 6 km/h 9.7 km/h 72.2% 0 mm 0 W/m2
20:19 8.1 °C 3.6 °C 1017.8 hPa NNW 4.3 km/h 8 km/h 72.8% 0 mm 0 W/m2
20:24 7.9 °C 3.4 °C 1017.8 hPa NNW 4.3 km/h 8 km/h 73% 0 mm 0 W/m2
20:29 7.8 °C 3.5 °C 1017.8 hPa NW 3.4 km/h 6.4 km/h 73.8% 0 mm 0 W/m2
20:34 7.7 °C 3.4 °C 1017.8 hPa NW 3.9 km/h 6.4 km/h 74% 0 mm 0 W/m2
20:39 7.6 °C 3.4 °C 1017.8 hPa NW 3.7 km/h 9.7 km/h 74.8% 0 mm 0 W/m2
20:44 7.4 °C 3.3 °C 1018.2 hPa WNW 4.2 km/h 9.7 km/h 75% 0 mm 0 W/m2
20:49 7.4 °C 3.3 °C 1018.2 hPa NW 4.2 km/h 8 km/h 75% 0 mm 0 W/m2
20:54 7.3 °C 3.2 °C 1018.2 hPa NW 3.2 km/h 6.4 km/h 75% 0 mm 0 W/m2
20:59 7.3 °C 3.3 °C 1018.2 hPa NW 2.6 km/h 8 km/h 76% 0 mm 0 W/m2
21:04 7.2 °C 3.3 °C 1018.5 hPa NW 3.5 km/h 6.4 km/h 76% 0 mm 0 W/m2
21:09 7.2 °C 3.3 °C 1018.5 hPa NW 3.5 km/h 6.4 km/h 76% 0 mm 0 W/m2
21:14 7.1 °C 3.2 °C 1018.5 hPa NW 1.1 km/h 6.4 km/h 76% 0 mm 0 W/m2
21:19 6.9 °C 3.1 °C 1018.8 hPa NW 1.6 km/h 4.8 km/h 76% 0 mm 0 W/m2
21:24 6.9 °C 3 °C 1018.8 hPa NW 1.9 km/h 6.4 km/h 76.2% 0 mm 0 W/m2
21:29 6.8 °C 3.1 °C 1018.8 hPa NW 3.9 km/h 6.4 km/h 77% 0 mm 0 W/m2
21:34 6.8 °C 3.1 °C 1018.8 hPa NW 2.7 km/h 6.4 km/h 77% 0 mm 0 W/m2
21:39 6.7 °C 3 °C 1018.8 hPa NW 3.9 km/h 8 km/h 77% 0 mm 0 W/m2
21:44 6.7 °C 3 °C 1019.2 hPa NW 4.5 km/h 9.7 km/h 77% 0 mm 0 W/m2
21:49 6.7 °C 3 °C 1019.2 hPa NNW 3.9 km/h 9.7 km/h 77% 0 mm 0 W/m2
21:54 6.7 °C 2.9 °C 1019.2 hPa NW 3.4 km/h 8 km/h 77% 0 mm 0 W/m2
21:59 6.6 °C 2.9 °C 1019.2 hPa NW 2.7 km/h 8 km/h 77% 0 mm 0 W/m2
22:04 6.6 °C 2.9 °C 1019.2 hPa NNW 5.8 km/h 11.3 km/h 77% 0 mm 0 W/m2
22:09 6.5 °C 2.8 °C 1019.5 hPa NNE 2.9 km/h 11.3 km/h 77% 0 mm 0 W/m2
22:14 6.4 °C 2.7 °C 1019.5 hPa NNE 3.9 km/h 8 km/h 77% 0 mm 0 W/m2
22:19 6.4 °C 2.7 °C 1019.5 hPa NNW 3.2 km/h 8 km/h 77% 0 mm 0 W/m2
22:24 6.3 °C 2.4 °C 1019.5 hPa NNW 4.2 km/h 8 km/h 76% 0 mm 0 W/m2
22:29 6.3 °C 2.4 °C 1019.5 hPa NNW 3.5 km/h 8 km/h 76% 0 mm 0 W/m2
22:34 6.3 °C 2.4 °C 1019.5 hPa NNW 2.6 km/h 8 km/h 76% 0 mm 0 W/m2
22:39 6.2 °C 2.2 °C 1019.5 hPa NNW 3.9 km/h 8 km/h 75.6% 0 mm 0 W/m2
22:44 6.2 °C 2.1 °C 1019.5 hPa NW 4.3 km/h 8 km/h 75% 0 mm 0 W/m2
22:49 6.1 °C 2 °C 1019.5 hPa NW 2.4 km/h 8 km/h 75% 0 mm 0 W/m2
22:54 6.1 °C 1.9 °C 1019.9 hPa NNW 1.9 km/h 6.4 km/h 75% 0 mm 0 W/m2
22:59 6 °C 2 °C 1019.9 hPa NNW 1.4 km/h 4.8 km/h 75.5% 0 mm 0 W/m2
23:04 5.8 °C 1.9 °C 1019.9 hPa NNW 0.6 km/h 3.2 km/h 75.8% 0 mm 0 W/m2
23:09 5.8 °C 1.8 °C 1019.9 hPa NNW 0.8 km/h 3.2 km/h 76% 0 mm 0 W/m2
23:14 5.7 °C 1.8 °C 1019.9 hPa NNW 4.3 km/h 9.7 km/h 76% 0 mm 0 W/m2
23:19 5.6 °C 1.7 °C 1019.9 hPa North 6.1 km/h 6.4 km/h 76% 0 mm 0 W/m2
23:24 5.7 °C 1.7 °C 1020.2 hPa North 6.1 km/h 9.7 km/h 76% 0 mm 0 W/m2
23:29 5.7 °C 1.8 °C 1020.2 hPa North 6.1 km/h 12.9 km/h 76% 0 mm 0 W/m2
23:34 5.8 °C 1.9 °C 1020.2 hPa NW 4.7 km/h 11.3 km/h 76% 0 mm 0 W/m2
23:39 5.7 °C 1.8 °C 1020.2 hPa NNW 6.4 km/h 12.9 km/h 76% 0 mm 0 W/m2
23:44 5.7 °C 1.8 °C 1020.5 hPa NNW 3.5 km/h 6.4 km/h 76% 0 mm 0 W/m2
23:49 5.7 °C 1.8 °C 1020.5 hPa NNW 5.1 km/h 11.3 km/h 76% 0 mm 0 W/m2
23:54 5.7 °C 1.8 °C 1020.5 hPa NNW 3.7 km/h 9.7 km/h 76% 0 mm 0 W/m2
23:59 5.6 °C 1.7 °C 1020.5 hPa NNW 2.3 km/h 4.8 km/h 76% 0 mm 0 W/m2
Bath Spa Weather
Compliments of Weather Underground - 2 mb